createdAt,value
2019-02-26T00:00:32.061Z,11.9
2019-02-26T00:01:09.112Z,11.9
2019-02-26T00:02:09.392Z,11.9
2019-02-26T00:03:09.744Z,11.9
2019-02-26T00:03:42.864Z,11.9
2019-02-26T00:04:42.094Z,11.8
2019-02-26T00:05:37.386Z,11.8
2019-02-26T00:06:11.304Z,11.8
2019-02-26T00:07:07.116Z,11.8
2019-02-26T00:08:07.221Z,11.9
2019-02-26T00:08:41.629Z,11.8
2019-02-26T00:09:41.913Z,11.8
2019-02-26T00:10:39.529Z,11.8
2019-02-26T00:11:17.254Z,11.8
2019-02-26T00:12:00.359Z,11.8
2019-02-26T00:12:50.691Z,11.8
2019-02-26T00:13:44.839Z,11.8
2019-02-26T00:14:37.201Z,11.8
2019-02-26T00:15:20.691Z,11.8
2019-02-26T00:16:26.501Z,11.9
2019-02-26T00:17:00.151Z,11.8
2019-02-26T00:17:58.313Z,11.8
2019-02-26T00:18:42.516Z,11.8
2019-02-26T00:19:30.113Z,11.8
2019-02-26T00:20:25.123Z,11.8
2019-02-26T00:21:12.816Z,11.8
2019-02-26T00:22:02.358Z,11.8
2019-02-26T00:22:52.894Z,11.8
2019-02-26T00:23:52.963Z,11.8
2019-02-26T00:24:49.183Z,11.8
2019-02-26T00:25:28.154Z,11.8
2019-02-26T00:26:24.813Z,11.8
2019-02-26T00:27:12.787Z,11.8
2019-02-26T00:28:02.420Z,11.8
2019-02-26T00:28:52.220Z,11.8
2019-02-26T00:29:38.608Z,11.8
2019-02-26T00:30:26.388Z,11.8
2019-02-26T00:31:13.929Z,11.8
2019-02-26T00:32:06.987Z,11.8
2019-02-26T00:32:55.333Z,11.8
2019-02-26T00:33:41.380Z,11.8
2019-02-26T00:34:42.865Z,11.8
2019-02-26T00:35:33.908Z,11.8
2019-02-26T00:36:20.562Z,11.8
2019-02-26T00:37:12.541Z,11.8
2019-02-26T00:38:02.530Z,11.8
2019-02-26T00:38:51.610Z,11.8
2019-02-26T00:39:38.912Z,11.8
2019-02-26T00:40:27.194Z,11.8
2019-02-26T00:41:14.454Z,11.8
2019-02-26T00:42:11.137Z,11.8
2019-02-26T00:43:11.032Z,11.8
2019-02-26T00:43:44.012Z,11.8
2019-02-26T00:44:43.685Z,11.8
2019-02-26T00:45:42.548Z,11.8
2019-02-26T00:46:17.299Z,11.8
2019-02-26T00:47:15.180Z,11.8
2019-02-26T00:47:54.685Z,11.8
2019-02-26T00:48:49.459Z,11.8
2019-02-26T00:49:36.591Z,11.8
2019-02-26T00:50:24.226Z,11.8
2019-02-26T00:51:12.762Z,11.8
2019-02-26T00:52:08.631Z,11.8
2019-02-26T00:53:05.459Z,11.8
2019-02-26T00:53:42.629Z,11.8
2019-02-26T00:54:43.828Z,11.8
2019-02-26T00:55:40.644Z,11.8
2019-02-26T00:56:17.982Z,11.8
2019-02-26T00:57:19.879Z,11.8
2019-02-26T00:57:56.744Z,11.8
2019-02-26T00:58:56.554Z,11.8
2019-02-26T00:59:38.667Z,11.8
2019-02-26T01:00:33.006Z,11.8
2019-02-26T01:01:28.696Z,11.8
2019-02-26T01:02:07.286Z,11.8
2019-02-26T01:02:52.781Z,11.8
2019-02-26T01:03:55.263Z,11.8
2019-02-26T01:04:33.985Z,11.8
2019-02-26T01:05:23.243Z,11.8
2019-02-26T01:06:16.657Z,11.8
2019-02-26T01:07:13.489Z,11.8
2019-02-26T01:08:01.283Z,11.8
2019-02-26T01:08:53.053Z,11.8
2019-02-26T01:09:39.901Z,11.8
2019-02-26T01:10:30.093Z,11.8
2019-02-26T01:11:14.656Z,11.8
2019-02-26T01:12:02.936Z,11.8
2019-02-26T01:12:53.485Z,11.8
2019-02-26T01:13:43.843Z,11.8
2019-02-26T01:14:33.666Z,11.8
2019-02-26T01:15:23.659Z,11.8
2019-02-26T01:16:13.725Z,11.8
2019-02-26T01:17:04.565Z,11.8
2019-02-26T01:18:03.186Z,11.8
2019-02-26T01:18:55.655Z,11.8
2019-02-26T01:19:45.519Z,11.8
2019-02-26T01:20:37.295Z,11.8
2019-02-26T01:21:14.330Z,11.8
2019-02-26T01:22:04.645Z,11.8
2019-02-26T01:22:54.195Z,11.8
2019-02-26T01:23:44.215Z,11.8
2019-02-26T01:24:39.258Z,11.8
2019-02-26T01:25:29.760Z,11.8
2019-02-26T01:26:18.425Z,11.8
2019-02-26T01:27:04.986Z,11.8
2019-02-26T01:28:06.890Z,11.8
2019-02-26T01:29:05.950Z,11.8
2019-02-26T01:29:39.557Z,11.8
2019-02-26T01:30:42.526Z,11.8
2019-02-26T01:31:15.028Z,11.8
2019-02-26T01:32:25.301Z,11.8
2019-02-26T01:33:04.961Z,11.7
2019-02-26T01:33:55.186Z,11.7
2019-02-26T01:34:34.352Z,11.7
2019-02-26T01:35:37.719Z,11.8
2019-02-26T01:36:27.615Z,11.8
2019-02-26T01:37:17.256Z,11.7
2019-02-26T01:38:06.146Z,11.8
2019-02-26T01:38:58.957Z,11.8
2019-02-26T01:39:54.731Z,11.7
2019-02-26T01:40:32.202Z,11.8
2019-02-26T01:41:32.068Z,11.8
2019-02-26T01:42:06.471Z,11.8
2019-02-26T01:43:11.561Z,11.8
2019-02-26T01:43:45.859Z,11.8
2019-02-26T01:44:49.902Z,11.8
2019-02-26T01:45:38.004Z,11.8
2019-02-26T01:46:25.561Z,11.7
2019-02-26T01:47:12.311Z,11.7
2019-02-26T01:47:59.953Z,11.7
2019-02-26T01:48:48.203Z,11.7
2019-02-26T01:49:37.308Z,11.7
2019-02-26T01:50:35.627Z,11.8
2019-02-26T01:51:25.970Z,11.8
2019-02-26T01:52:18.416Z,11.7
2019-02-26T01:53:07.623Z,11.7
2019-02-26T01:53:59.517Z,11.8
2019-02-26T01:54:46.066Z,11.7
2019-02-26T01:55:34.295Z,11.7
2019-02-26T01:56:21.456Z,11.7
2019-02-26T01:57:11.465Z,11.8
2019-02-26T01:58:01.726Z,11.8
2019-02-26T01:59:03.296Z,11.8
2019-02-26T01:59:41.456Z,11.8
2019-02-26T02:00:31.866Z,11.8
2019-02-26T02:01:32.485Z,11.8
2019-02-26T02:02:12.047Z,11.8
2019-02-26T02:02:58.480Z,11.8
2019-02-26T02:04:00.135Z,11.8
2019-02-26T02:04:49.415Z,11.7
2019-02-26T02:05:37.918Z,11.8
2019-02-26T02:06:25.365Z,11.8
2019-02-26T02:07:13.103Z,11.8
2019-02-26T02:08:02.913Z,11.8
2019-02-26T02:09:01.225Z,11.8
2019-02-26T02:09:38.463Z,11.8
2019-02-26T02:10:27.896Z,11.8
2019-02-26T02:11:18.222Z,11.8
2019-02-26T02:12:17.846Z,11.8
2019-02-26T02:13:16.728Z,11.8
2019-02-26T02:13:51.152Z,11.8
2019-02-26T02:14:38.998Z,11.8
2019-02-26T02:15:31.159Z,11.8
2019-02-26T02:16:17.735Z,11.8
2019-02-26T02:17:20.731Z,11.8
2019-02-26T02:18:09.405Z,11.8
2019-02-26T02:19:05.152Z,11.8
2019-02-26T02:19:41.042Z,11.8
2019-02-26T02:20:29.769Z,11.8
2019-02-26T02:21:18.600Z,11.8
2019-02-26T02:22:14.447Z,11.8
2019-02-26T02:23:10.719Z,11.8
2019-02-26T02:23:58.567Z,11.8
2019-02-26T02:24:58.362Z,11.8
2019-02-26T02:25:47.737Z,11.8
2019-02-26T02:26:22.926Z,11.8
2019-02-26T02:27:09.572Z,11.8
2019-02-26T02:28:10.539Z,11.8
2019-02-26T02:28:50.236Z,11.8
2019-02-26T02:29:52.936Z,11.8
2019-02-26T02:30:45.467Z,11.8
2019-02-26T02:31:21.910Z,11.8
2019-02-26T02:32:15.237Z,11.8
2019-02-26T02:33:09.760Z,11.8
2019-02-26T02:33:49.484Z,11.8
2019-02-26T02:34:49.552Z,11.8
2019-02-26T02:35:29.351Z,11.8
2019-02-26T02:36:33.359Z,11.8
2019-02-26T02:37:10.061Z,11.8
2019-02-26T02:38:11.966Z,11.8
2019-02-26T02:38:50.149Z,11.8
2019-02-26T02:39:39.605Z,11.8
2019-02-26T02:40:30.895Z,11.8
2019-02-26T02:41:20.056Z,11.8
2019-02-26T02:42:23.879Z,11.8
2019-02-26T02:43:23.838Z,11.8
2019-02-26T02:43:50.733Z,11.8
2019-02-26T02:44:54.331Z,11.8
2019-02-26T02:45:29.241Z,11.8
2019-02-26T02:46:20.123Z,11.8
2019-02-26T02:47:18.743Z,11.8
2019-02-26T02:48:19.756Z,11.8
2019-02-26T02:48:50.882Z,11.8
2019-02-26T02:49:51.385Z,11.8
2019-02-26T02:50:31.467Z,11.8
2019-02-26T02:51:21.060Z,11.8
2019-02-26T02:52:18.543Z,11.7
2019-02-26T02:53:11.210Z,11.8
2019-02-26T02:54:05.218Z,11.8
2019-02-26T02:54:54.644Z,11.8
2019-02-26T02:55:31.316Z,11.8
2019-02-26T02:56:25.097Z,11.9
2019-02-26T02:57:17.373Z,11.9
2019-02-26T02:58:07.058Z,11.9
2019-02-26T02:58:58.802Z,11.9
2019-02-26T02:59:48.917Z,11.8
2019-02-26T03:00:41.348Z,11.8
2019-02-26T03:01:35.058Z,11.9
2019-02-26T03:02:26.417Z,11.9
2019-02-26T03:03:05.162Z,11.9
2019-02-26T03:04:07.275Z,11.9
2019-02-26T03:04:41.774Z,11.9
2019-02-26T03:08:04.423Z,11.9
2019-02-26T03:09:00.345Z,11.9
2019-02-26T03:09:52.345Z,11.8
2019-02-26T03:10:50.849Z,11.8
2019-02-26T03:11:18.947Z,11.8
2019-02-26T03:12:09.305Z,11.8
2019-02-26T03:13:09.717Z,11.8
2019-02-26T03:14:00.392Z,11.8
2019-02-26T03:14:51.382Z,11.8
2019-02-26T03:15:42.821Z,11.8
2019-02-26T03:16:33.570Z,11.8
2019-02-26T03:17:24.855Z,11.8
2019-02-26T03:18:00.800Z,11.8
2019-02-26T03:18:49.836Z,11.8
2019-02-26T03:19:50.158Z,11.9
2019-02-26T03:20:46.491Z,11.9
2019-02-26T03:21:35.127Z,11.9
2019-02-26T03:22:25.239Z,11.9
2019-02-26T03:23:00.631Z,11.8
2019-02-26T03:23:53.967Z,11.8
2019-02-26T03:24:43.761Z,11.8
2019-02-26T03:25:36.706Z,11.9
2019-02-26T03:26:34.069Z,11.9
2019-02-26T03:27:10.851Z,11.9
2019-02-26T03:28:01.186Z,11.9
2019-02-26T03:29:00.998Z,11.9
2019-02-26T03:29:41.326Z,11.8
2019-02-26T03:30:51.709Z,11.8
2019-02-26T03:31:25.748Z,11.8
2019-02-26T03:32:11.845Z,11.8
2019-02-26T03:33:12.430Z,11.8
2019-02-26T03:33:59.892Z,11.8
2019-02-26T03:34:41.604Z,11.8
2019-02-26T03:35:32.098Z,11.8
2019-02-26T03:36:26.446Z,11.8
2019-02-26T03:37:17.914Z,11.8
2019-02-26T03:38:10.997Z,11.8
2019-02-26T03:39:09.296Z,11.8
2019-02-26T03:39:41.393Z,11.8
2019-02-26T03:40:42.955Z,11.8
2019-02-26T03:41:36.869Z,11.8
2019-02-26T03:42:24.843Z,11.8
2019-02-26T03:43:16.673Z,11.8
2019-02-26T03:43:51.976Z,11.8
2019-02-26T03:44:46.057Z,11.8
2019-02-26T03:45:33.355Z,11.8
2019-02-26T03:46:21.715Z,11.8
2019-02-26T03:47:11.505Z,11.9
2019-02-26T03:48:05.640Z,11.9
2019-02-26T03:48:51.566Z,11.9
2019-02-26T03:49:46.482Z,11.9
2019-02-26T03:50:34.553Z,11.8
2019-02-26T03:51:25.821Z,11.9
2019-02-26T03:52:16.961Z,11.8
2019-02-26T03:53:01.905Z,11.9
2019-02-26T03:53:52.158Z,11.9
2019-02-26T03:54:57.048Z,11.8
2019-02-26T03:55:46.422Z,11.8
2019-02-26T03:56:28.410Z,11.8
2019-02-26T03:57:28.875Z,11.8
2019-02-26T03:58:09.940Z,11.8
2019-02-26T03:59:15.280Z,11.8
2019-02-26T03:59:42.769Z,11.8
2019-02-26T04:00:49.189Z,11.8
2019-02-26T04:01:29.901Z,11.7
2019-02-26T04:02:28.909Z,11.8
2019-02-26T04:03:17.940Z,11.8
2019-02-26T04:03:51.394Z,11.8
2019-02-26T04:04:53.856Z,11.8
2019-02-26T04:05:33.447Z,11.8
2019-02-26T04:06:22.929Z,11.8
2019-02-26T04:07:17.665Z,11.8
2019-02-26T04:08:11.999Z,11.8
2019-02-26T04:09:03.377Z,11.8
2019-02-26T04:10:04.589Z,11.8
2019-02-26T04:10:34.087Z,11.8
2019-02-26T04:11:34.762Z,11.7
2019-02-26T04:12:27.052Z,11.7
2019-02-26T04:13:06.601Z,11.7
2019-02-26T04:14:03.631Z,11.8
2019-02-26T04:14:44.436Z,11.7
2019-02-26T04:15:44.594Z,11.6
2019-02-26T04:16:23.606Z,11.7
2019-02-26T04:17:16.871Z,11.7
2019-02-26T04:18:04.585Z,11.6
2019-02-26T04:18:59.156Z,11.6
2019-02-26T04:19:48.995Z,11.6
2019-02-26T04:20:36.635Z,11.7
2019-02-26T04:21:28.733Z,11.6
2019-02-26T04:22:30.334Z,11.6
2019-02-26T04:23:04.934Z,11.5
2019-02-26T04:23:54.004Z,11.4
2019-02-26T04:24:45.040Z,11.5
2019-02-26T04:25:43.141Z,11.4
2019-02-26T04:26:40.786Z,11.4
2019-02-26T04:27:15.276Z,11.3
2019-02-26T04:28:16.906Z,11.3
2019-02-26T04:28:58.278Z,11.1
2019-02-26T04:29:56.649Z,11.1
2019-02-26T04:30:57.298Z,11.1
2019-02-26T04:31:25.565Z,11.2
2019-02-26T04:32:29.088Z,11.2
2019-02-26T04:33:18.500Z,11.3
2019-02-26T04:34:11.305Z,11.3
2019-02-26T04:34:45.446Z,11.3
2019-02-26T04:35:35.799Z,11.3
2019-02-26T04:36:30.723Z,11.3
2019-02-26T04:37:19.965Z,11.3
2019-02-26T04:38:13.793Z,11.3
2019-02-26T04:39:02.775Z,11.3
2019-02-26T04:39:55.212Z,11.4
2019-02-26T04:40:47.794Z,11.3
2019-02-26T04:41:25.575Z,11.3
2019-02-26T04:42:26.637Z,11.3
2019-02-26T04:43:19.497Z,11.3
2019-02-26T04:44:11.597Z,11.3
2019-02-26T04:45:09.715Z,11.3
2019-02-26T04:45:36.464Z,11.3
2019-02-26T04:46:41.273Z,11.3
2019-02-26T04:47:21.235Z,11.2
2019-02-26T04:48:08.547Z,11.2
2019-02-26T04:48:56.135Z,11.2
2019-02-26T04:49:50.887Z,11.2
2019-02-26T04:50:50.887Z,11.2
2019-02-26T04:51:27.199Z,11.3
2019-02-26T04:52:25.599Z,11.3
2019-02-26T04:53:18.000Z,11.3
2019-02-26T04:54:08.179Z,11.3
2019-02-26T04:54:47.874Z,11.2
2019-02-26T04:55:51.302Z,11.2
2019-02-26T04:56:26.233Z,11.2
2019-02-26T04:57:17.060Z,11.2
2019-02-26T04:58:10.716Z,11.3
2019-02-26T04:58:57.207Z,11.3
2019-02-26T04:59:51.679Z,11.3
2019-02-26T05:00:46.236Z,11.3
2019-02-26T05:01:27.077Z,11.3
2019-02-26T05:02:17.136Z,11.3
2019-02-26T05:03:23.510Z,11.3
2019-02-26T05:03:56.951Z,11.3
2019-02-26T05:04:50.268Z,11.3
2019-02-26T05:05:44.661Z,11.2
2019-02-26T05:06:27.444Z,11.2
2019-02-26T05:07:26.741Z,11.2
2019-02-26T05:08:21.804Z,11.1
2019-02-26T05:09:13.421Z,11.1
2019-02-26T05:10:02.870Z,11.2
2019-02-26T05:10:41.810Z,11.1
2019-02-26T05:11:47.685Z,11.1
2019-02-26T05:12:18.153Z,11.1
2019-02-26T05:13:16.730Z,11.1
2019-02-26T05:13:58.228Z,11.1
2019-02-26T05:14:48.266Z,11.1
2019-02-26T05:15:44.330Z,11.1
2019-02-26T05:16:45.186Z,11.1
2019-02-26T05:17:30.641Z,11.2
2019-02-26T05:18:08.293Z,11.1
2019-02-26T05:19:05.451Z,11.2
2019-02-26T05:19:58.832Z,11.1
2019-02-26T05:20:54.877Z,11.2
2019-02-26T05:21:42.299Z,11.2
2019-02-26T05:22:30.205Z,11.2
2019-02-26T05:23:13.192Z,11.1
2019-02-26T05:24:08.818Z,11.1
2019-02-26T05:25:00.232Z,11.1
2019-02-26T05:25:51.100Z,11.1
2019-02-26T05:26:32.130Z,11.2
2019-02-26T05:27:32.073Z,11.2
2019-02-26T05:28:23.297Z,11.3
2019-02-26T05:28:59.833Z,11.4
2019-02-26T05:30:01.770Z,11.4
2019-02-26T05:30:52.992Z,11.4
2019-02-26T05:31:43.138Z,11.3
2019-02-26T05:32:21.242Z,11.3
2019-02-26T05:33:13.857Z,11.3
2019-02-26T05:34:07.624Z,11.3
2019-02-26T05:34:57.566Z,11.3
2019-02-26T05:35:53.907Z,11.1
2019-02-26T05:36:48.338Z,10.9
2019-02-26T05:37:22.362Z,10.9
2019-02-26T05:38:17.264Z,10.9
2019-02-26T05:39:08.574Z,10.8
2019-02-26T05:40:01.452Z,10.8
2019-02-26T05:41:00.508Z,10.8
2019-02-26T05:41:29.428Z,10.9
2019-02-26T05:42:19.879Z,10.9
2019-02-26T05:43:13.777Z,10.8
2019-02-26T05:44:16.739Z,10.8
2019-02-26T05:45:00.404Z,10.9
2019-02-26T05:45:43.222Z,11
2019-02-26T05:46:36.558Z,11
2019-02-26T05:47:32.787Z,11.2
2019-02-26T05:48:12.458Z,11.3
2019-02-26T05:49:00.528Z,11.4
2019-02-26T05:49:54.027Z,11.4
2019-02-26T05:50:52.217Z,11.4
2019-02-26T05:51:44.440Z,11.4
2019-02-26T05:52:35.639Z,11.4
2019-02-26T05:53:20.613Z,11.4
2019-02-26T05:54:25.762Z,11.4
2019-02-26T05:54:52.621Z,11.4
2019-02-26T05:55:56.497Z,11.4
2019-02-26T05:56:31.159Z,11.4
2019-02-26T05:57:40.762Z,11.4
2019-02-26T05:58:25.964Z,11.4
2019-02-26T05:59:23.711Z,11.4
2019-02-26T05:59:51.622Z,11.4
2019-02-26T06:00:41.692Z,11.4
2019-02-26T06:01:35.700Z,11.4
2019-02-26T06:02:31.922Z,11.4
2019-02-26T06:03:25.384Z,11.4
2019-02-26T06:06:07.729Z,11.4
2019-02-26T06:07:05.656Z,11.4
2019-02-26T06:07:46.544Z,11.4
2019-02-26T06:08:47.962Z,11.4
2019-02-26T06:09:34.807Z,11.4
2019-02-26T06:10:09.445Z,11.4
2019-02-26T06:10:59.771Z,11.4
2019-02-26T06:11:57.968Z,11.4
2019-02-26T06:12:53.542Z,11.4
2019-02-26T06:13:45.089Z,11.4
2019-02-26T06:14:21.291Z,11.4
2019-02-26T06:15:15.552Z,11.4
2019-02-26T06:16:13.981Z,11.4
2019-02-26T06:17:01.944Z,11.4
2019-02-26T06:18:00.577Z,11.4
2019-02-26T06:18:29.793Z,11.4
2019-02-26T06:19:25.055Z,11.4
2019-02-26T06:20:18.161Z,11.4
2019-02-26T06:21:08.323Z,11.4
2019-02-26T06:22:02.911Z,11.4
2019-02-26T06:22:43.325Z,11.4
2019-02-26T06:23:48.044Z,11.4
2019-02-26T06:24:39.959Z,11.4
2019-02-26T06:25:32.184Z,11.4
2019-02-26T06:26:32.531Z,11.4
2019-02-26T06:26:53.978Z,11.3
2019-02-26T06:27:44.420Z,11.4
2019-02-26T06:28:54.223Z,11.4
2019-02-26T06:29:42.706Z,11.4
2019-02-26T06:30:20.428Z,11.4
2019-02-26T06:31:04.840Z,11.4
2019-02-26T06:31:57.405Z,11.4
2019-02-26T06:32:52.627Z,11.4
2019-02-26T06:33:56.051Z,11.4
2019-02-26T06:34:29.772Z,11.4
2019-02-26T06:35:26.274Z,11.4
2019-02-26T06:36:13.184Z,11.4
2019-02-26T06:37:00.753Z,11.4
2019-02-26T06:37:47.259Z,11.3
2019-02-26T06:38:41.425Z,11.4
2019-02-26T06:39:41.785Z,11.3
2019-02-26T06:40:15.363Z,11.4
2019-02-26T06:41:04.957Z,11.3
2019-02-26T06:41:58.680Z,11.3
2019-02-26T06:42:48.150Z,11.3
2019-02-26T06:43:58.822Z,11.3
2019-02-26T06:44:25.947Z,11.3
2019-02-26T06:45:23.907Z,11.3
2019-02-26T06:46:19.495Z,11.3
2019-02-26T06:46:55.376Z,11.3
2019-02-26T06:47:56.375Z,11.3
2019-02-26T06:48:39.711Z,11.3
2019-02-26T06:49:35.829Z,11.3
2019-02-26T06:50:25.662Z,11.3
2019-02-26T06:51:14.384Z,11.3
2019-02-26T06:52:01.219Z,11.3
2019-02-26T06:52:56.719Z,11.3
2019-02-26T06:53:36.309Z,11.3
2019-02-26T06:54:38.387Z,11.3
2019-02-26T06:55:16.719Z,11.3
2019-02-26T06:56:08.649Z,11.3
2019-02-26T06:57:01.046Z,11.3
2019-02-26T06:58:01.371Z,11.3
2019-02-26T06:58:48.431Z,11.3
2019-02-26T06:59:37.851Z,11.3
2019-02-26T07:00:29.519Z,11.3
2019-02-26T07:01:12.013Z,11.3
2019-02-26T07:02:00.322Z,11.3
2019-02-26T07:02:51.486Z,11.3
2019-02-26T07:03:40.988Z,11.3
2019-02-26T07:06:05.856Z,11.3
2019-02-26T07:06:48.391Z,11.3
2019-02-26T07:07:40.021Z,11.3
2019-02-26T07:08:38.224Z,11.3
2019-02-26T07:09:28.306Z,11.3
2019-02-26T07:10:09.403Z,11.3
2019-02-26T07:11:00.018Z,11.3
2019-02-26T07:11:49.983Z,11.3
2019-02-26T07:12:52.561Z,11.3
2019-02-26T07:13:29.631Z,11.3
2019-02-26T07:14:19.893Z,11.3
2019-02-26T07:15:14.559Z,11.3
2019-02-26T07:16:00.292Z,11.3
2019-02-26T07:16:49.550Z,11.3
2019-02-26T07:17:52.401Z,11.3
2019-02-26T07:18:30.453Z,11.3
2019-02-26T07:19:25.750Z,11.3
2019-02-26T07:20:11.746Z,11.3
2019-02-26T07:21:07.592Z,11.3
2019-02-26T07:21:59.403Z,11.3
2019-02-26T07:22:53.350Z,11.3
2019-02-26T07:23:43.456Z,11.3
2019-02-26T07:24:32.817Z,11.3
2019-02-26T07:25:23.494Z,11.3
2019-02-26T07:26:01.227Z,11.3
2019-02-26T07:26:56.577Z,11.3
2019-02-26T07:27:46.090Z,11.3
2019-02-26T07:28:34.422Z,11.3
2019-02-26T07:29:25.332Z,11.3
2019-02-26T07:30:11.566Z,11.3
2019-02-26T07:31:12.678Z,11.3
2019-02-26T07:32:02.832Z,11.3
2019-02-26T07:32:53.742Z,11.3
2019-02-26T07:33:43.721Z,11.3
2019-02-26T07:34:33.225Z,11.3
2019-02-26T07:35:23.733Z,11.3
2019-02-26T07:36:11.497Z,11.3
2019-02-26T07:36:59.597Z,11.3
2019-02-26T07:37:47.869Z,11.3
2019-02-26T07:38:58.598Z,11.3
2019-02-26T07:39:30.369Z,11.3
2019-02-26T07:40:25.239Z,11.3
2019-02-26T07:41:12.859Z,11.3
2019-02-26T07:42:01.558Z,11.4
2019-02-26T07:42:55.694Z,11.3
2019-02-26T07:43:31.581Z,11.4
2019-02-26T07:44:35.517Z,11.3
2019-02-26T07:45:37.537Z,11.3
2019-02-26T07:46:02.582Z,11.3
2019-02-26T07:46:53.322Z,11.4
2019-02-26T07:47:55.968Z,11.4
2019-02-26T07:48:40.884Z,11.4
2019-02-26T07:49:24.362Z,11.4
2019-02-26T07:50:24.031Z,11.4
2019-02-26T07:51:02.412Z,11.3
2019-02-26T07:51:52.391Z,11.4
2019-02-26T07:52:42.701Z,11.4
2019-02-26T07:53:32.803Z,11.4
2019-02-26T07:54:22.821Z,11.4
2019-02-26T07:55:23.673Z,11.4
2019-02-26T07:56:14.711Z,11.4
2019-02-26T07:57:05.652Z,11.4
2019-02-26T07:57:55.898Z,11.4
2019-02-26T07:58:45.701Z,11.4
2019-02-26T07:59:52.918Z,11.4
2019-02-26T08:00:12.974Z,11.4
2019-02-26T08:01:03.188Z,11.4
2019-02-26T08:01:57.895Z,11.4
2019-02-26T08:02:45.689Z,11.4
2019-02-26T08:03:37.391Z,11.4
2019-02-26T08:04:25.905Z,11.4
2019-02-26T08:05:13.830Z,11.4
2019-02-26T08:06:18.210Z,11.4
2019-02-26T08:07:05.791Z,11.4
2019-02-26T08:07:56.473Z,11.4
2019-02-26T08:08:33.823Z,11.4
2019-02-26T08:09:30.958Z,11.4
2019-02-26T08:10:26.168Z,11.4
2019-02-26T08:11:03.718Z,11.4
2019-02-26T08:11:56.528Z,11.4
2019-02-26T08:12:50.494Z,11.4
2019-02-26T08:13:43.680Z,11.4
2019-02-26T08:14:32.122Z,11.4
2019-02-26T08:15:22.588Z,11.4
2019-02-26T08:16:12.515Z,11.4
2019-02-26T08:17:12.308Z,11.4
2019-02-26T08:18:05.852Z,11.4
2019-02-26T08:18:34.470Z,11.4
2019-02-26T08:19:30.313Z,11.4
2019-02-26T08:20:21.875Z,11.4
2019-02-26T08:21:12.526Z,11.4
2019-02-26T08:22:04.132Z,11.4
2019-02-26T08:22:44.507Z,11.4
2019-02-26T08:23:34.914Z,11.4
2019-02-26T08:24:32.083Z,11.4
2019-02-26T08:25:15.212Z,11.4
2019-02-26T08:26:10.257Z,11.4
2019-02-26T08:26:57.834Z,11.4
2019-02-26T08:27:46.414Z,11.4
2019-02-26T08:28:41.297Z,11.4
2019-02-26T08:29:37.912Z,11.4
2019-02-26T08:30:29.301Z,11.4
2019-02-26T08:31:20.145Z,11.4
2019-02-26T08:32:08.137Z,11.5
2019-02-26T08:33:09.202Z,11.4
2019-02-26T08:33:35.634Z,11.4
2019-02-26T08:34:25.814Z,11.4
2019-02-26T08:35:20.536Z,11.5
2019-02-26T08:36:05.656Z,11.5
2019-02-26T08:36:55.666Z,11.5
2019-02-26T08:37:45.812Z,11.5
2019-02-26T08:38:38.601Z,11.5
2019-02-26T08:39:25.339Z,11.5
2019-02-26T08:40:18.564Z,11.5
2019-02-26T08:41:06.007Z,11.5
2019-02-26T08:41:55.756Z,11.5
2019-02-26T08:42:46.137Z,11.5
2019-02-26T08:43:36.233Z,11.5
2019-02-26T08:44:25.301Z,11.5
2019-02-26T08:45:32.498Z,11.5
2019-02-26T08:46:12.105Z,11.5
2019-02-26T08:46:57.767Z,11.5
2019-02-26T08:47:45.403Z,11.5
2019-02-26T08:48:36.458Z,11.6
2019-02-26T08:49:30.061Z,11.6
2019-02-26T08:50:22.286Z,11.7
2019-02-26T08:51:27.367Z,11.8
2019-02-26T08:51:57.018Z,11.9
2019-02-26T08:53:00.944Z,11.9
2019-02-26T08:53:39.113Z,12.1
2019-02-26T08:54:41.672Z,12.1
2019-02-26T08:55:30.828Z,12.1
2019-02-26T08:56:13.450Z,12.2
2019-02-26T08:56:57.343Z,12.3
2019-02-26T08:57:47.103Z,12.3
2019-02-26T08:58:36.682Z,12.3
2019-02-26T08:59:27.861Z,12.3
2019-02-26T09:00:17.343Z,12.3
2019-02-26T09:01:07.046Z,12.3
2019-02-26T09:01:57.077Z,12.3
2019-02-26T09:03:03.272Z,12.3
2019-02-26T09:03:58.245Z,12.4
2019-02-26T09:04:31.847Z,12.4
2019-02-26T09:05:20.290Z,12.4
2019-02-26T09:06:23.302Z,12.4
2019-02-26T09:07:08.877Z,12.4
2019-02-26T09:07:57.072Z,12.4
2019-02-26T09:08:49.382Z,12.4
2019-02-26T09:09:39.682Z,12.5
2019-02-26T09:10:29.597Z,12.5
2019-02-26T09:11:20.375Z,12.4
2019-02-26T09:12:09.257Z,12.5
2019-02-26T09:12:59.252Z,12.5
2019-02-26T09:13:51.115Z,12.5
2019-02-26T09:14:37.527Z,12.4
2019-02-26T09:15:20.696Z,12.4
2019-02-26T09:16:14.817Z,12.5
2019-02-26T09:17:10.979Z,12.5
2019-02-26T09:17:50.552Z,12.5
2019-02-26T09:18:47.976Z,12.5
2019-02-26T09:19:43.216Z,12.6
2019-02-26T09:20:23.002Z,12.6
2019-02-26T09:21:23.907Z,12.6
2019-02-26T09:22:02.627Z,12.6
2019-02-26T09:23:07.566Z,12.6
2019-02-26T09:23:40.710Z,12.6
2019-02-26T09:24:28.949Z,12.6
2019-02-26T09:25:23.999Z,12.6
2019-02-26T09:26:14.714Z,12.6
2019-02-26T09:27:11.291Z,12.6
2019-02-26T09:27:51.226Z,12.6
2019-02-26T09:28:40.286Z,12.6
2019-02-26T09:29:31.418Z,12.6
2019-02-26T09:30:23.931Z,12.6
2019-02-26T09:31:20.448Z,12.6
2019-02-26T09:31:59.141Z,12.6
2019-02-26T09:32:54.967Z,12.6
2019-02-26T09:33:52.308Z,12.6
2019-02-26T09:34:45.521Z,12.6
2019-02-26T09:35:36.814Z,12.6
2019-02-26T09:36:30.421Z,12.6
2019-02-26T09:37:14.055Z,12.6
2019-02-26T09:38:07.004Z,12.6
2019-02-26T09:38:51.956Z,12.6
2019-02-26T09:39:41.659Z,12.7
2019-02-26T09:40:38.183Z,12.7
2019-02-26T09:41:16.999Z,12.7
2019-02-26T09:42:12.301Z,12.7
2019-02-26T09:43:08.402Z,12.7
2019-02-26T09:43:52.383Z,12.7
2019-02-26T09:44:42.420Z,12.7
2019-02-26T09:45:34.968Z,12.7
2019-02-26T09:46:25.615Z,12.7
2019-02-26T09:47:12.783Z,12.7
2019-02-26T09:48:05.777Z,12.7
2019-02-26T09:48:52.658Z,12.7
2019-02-26T09:49:41.840Z,12.8
2019-02-26T09:50:30.195Z,12.8
2019-02-26T09:51:22.363Z,12.7
2019-02-26T09:52:12.955Z,12.7
2019-02-26T09:53:04.387Z,12.8
2019-02-26T09:53:40.658Z,12.8
2019-02-26T09:54:31.363Z,12.8
2019-02-26T09:55:21.277Z,12.8
2019-02-26T09:56:11.027Z,12.8
2019-02-26T09:57:00.797Z,12.8
2019-02-26T09:57:50.172Z,12.8
2019-02-26T09:58:54.907Z,12.8
2019-02-26T09:59:43.320Z,12.8
2019-02-26T10:00:36.129Z,12.8
2019-02-26T10:01:22.717Z,12.8
2019-02-26T10:02:12.337Z,12.8
2019-02-26T10:02:59.012Z,12.8
2019-02-26T10:03:48.832Z,12.8
2019-02-26T10:04:36.486Z,12.8
2019-02-26T10:06:58.992Z,12.8
2019-02-26T10:07:48.488Z,12.8
2019-02-26T10:08:38.039Z,12.8
2019-02-26T10:09:29.209Z,12.8
2019-02-26T10:10:21.492Z,12.8
2019-02-26T10:11:12.434Z,12.8
2019-02-26T10:12:00.056Z,12.8
2019-02-26T10:12:54.247Z,12.8
2019-02-26T10:13:51.782Z,12.8
2019-02-26T10:14:41.778Z,12.8
2019-02-26T10:15:18.204Z,12.8
2019-02-26T10:16:15.979Z,12.8
2019-02-26T10:17:04.256Z,12.8
2019-02-26T10:17:52.479Z,12.8
2019-02-26T10:18:41.019Z,12.8
2019-02-26T10:19:33.678Z,12.8
2019-02-26T10:20:34.181Z,12.8
2019-02-26T10:21:24.533Z,12.8
2019-02-26T10:22:17.237Z,12.8
2019-02-26T10:22:55.570Z,12.8
2019-02-26T10:23:40.471Z,12.8
2019-02-26T10:24:46.339Z,12.9
2019-02-26T10:25:40.471Z,12.8
2019-02-26T10:26:18.284Z,12.9
2019-02-26T10:27:20.060Z,12.9
2019-02-26T10:27:55.146Z,12.9
2019-02-26T10:29:13.015Z,12.9
2019-02-26T10:29:36.455Z,12.9
2019-02-26T10:30:24.508Z,12.9
2019-02-26T10:31:17.605Z,12.9
2019-02-26T10:32:04.264Z,12.9
2019-02-26T10:32:55.206Z,12.9
2019-02-26T10:33:56.718Z,12.9
2019-02-26T10:34:37.900Z,12.9
2019-02-26T10:35:54.453Z,12.9
2019-02-26T10:36:23.998Z,12.9
2019-02-26T10:37:01.328Z,12.9
2019-02-26T10:37:52.120Z,12.9
2019-02-26T10:38:46.504Z,12.9
2019-02-26T10:39:37.979Z,12.9
2019-02-26T10:41:04.921Z,12.9
2019-02-26T10:41:15.410Z,12.9
2019-02-26T10:42:10.505Z,12.9
2019-02-26T10:42:55.250Z,12.9
2019-02-26T10:43:48.578Z,12.9
2019-02-26T10:44:36.597Z,12.9
2019-02-26T10:45:24.735Z,12.9
2019-02-26T10:46:15.622Z,12.9
2019-02-26T10:47:16.870Z,12.9
2019-02-26T10:48:08.254Z,12.9
2019-02-26T10:48:57.502Z,12.8
2019-02-26T10:49:37.070Z,12.9
2019-02-26T10:50:54.570Z,12.9
2019-02-26T10:51:28.109Z,12.9
2019-02-26T10:52:06.874Z,12.9
2019-02-26T10:53:26.279Z,12.9
2019-02-26T10:53:46.869Z,12.9
2019-02-26T10:54:53.139Z,12.9
2019-02-26T10:55:48.736Z,12.8
2019-02-26T10:56:16.255Z,12.8
2019-02-26T10:57:21.849Z,12.8
2019-02-26T10:58:17.009Z,12.8
2019-02-26T10:58:46.300Z,12.8
2019-02-26T10:59:36.977Z,12.8
2019-02-26T11:00:43.077Z,12.8
2019-02-26T11:01:34.075Z,12.8
2019-02-26T11:02:10.969Z,12.8
2019-02-26T11:03:02.771Z,12.8
2019-02-26T11:04:04.139Z,12.8
2019-02-26T11:05:01.899Z,12.8
2019-02-26T11:05:34.989Z,12.8
2019-02-26T11:06:27.060Z,12.8
2019-02-26T11:07:21.689Z,12.8
2019-02-26T11:08:15.145Z,12.8
2019-02-26T11:09:02.854Z,12.8
2019-02-26T11:09:40.329Z,12.8
2019-02-26T11:10:33.548Z,12.8
2019-02-26T11:11:26.593Z,12.7
2019-02-26T11:12:16.549Z,12.8
2019-02-26T11:13:07.238Z,12.8
2019-02-26T11:14:00.802Z,12.8